Time;durP1;ratioP1;P1;durP2;ratioP2;P2;SDS_P1;SDS_P2;PMS_P1;PMS_P2;Temp;Humidity;BMP_temperature;BMP_pressure;BME280_temperature;BME280_humidity;BME280_pressure;Samples;Min_cycle;Max_cycle;Signal;HPM_P1;HPM_P2
2022/12/27 00:03:34;;;;;;;6.57;3.53;;;7.10;99.90;;;;;;10329502;28;20240;-81
2022/12/27 00:08:37;;;;;;;4.03;2.07;;;7.00;99.90;;;;;;10329384;28;20224;-81
2022/12/27 00:13:40;;;;;;;7.37;2.10;;;6.90;99.90;;;;;;10311212;28;20260;-81
2022/12/27 00:18:43;;;;;;;6.07;1.97;;;6.60;99.90;;;;;;10326287;28;20323;-81
2022/12/27 00:23:48;;;;;;;7.97;2.47;;;6.40;99.90;;;;;;10311708;28;20748;-80
2022/12/27 00:28:51;;;;;;;5.13;2.33;;;6.20;99.90;;;;;;10309656;28;20657;-79
2022/12/27 00:33:58;;;;;;;8.53;2.23;;;6.10;99.90;;;;;;10327412;28;20314;-80
2022/12/27 00:39:01;;;;;;;9.37;2.50;;;6.00;99.90;;;;;;10325135;28;20705;-80
2022/12/27 00:44:04;;;;;;;16.17;8.23;;;6.00;99.90;;;;;;10324110;28;20295;-80
2022/12/27 00:49:07;;;;;;;4.63;1.53;;;5.90;99.90;;;;;;10328479;28;20233;-79
2022/12/27 00:54:09;;;;;;;4.80;1.90;;;5.90;99.90;;;;;;10327118;28;20248;-80
2022/12/27 00:59:12;;;;;;;14.53;2.43;;;5.80;99.90;;;;;;10328030;28;20232;-80
2022/12/27 01:04:14;;;;;;;6.93;2.10;;;5.70;99.90;;;;;;10309744;28;20652;-79
2022/12/27 01:09:17;;;;;;;9.27;1.53;;;5.60;99.90;;;;;;10327163;28;20212;-80
2022/12/27 01:14:20;;;;;;;8.77;1.40;;;5.40;99.90;;;;;;10308886;28;20264;-80
2022/12/27 01:19:22;;;;;;;7.20;1.30;;;5.10;99.90;;;;;;10325877;28;20660;-80
2022/12/27 01:24:25;;;;;;;7.67;1.73;;;4.90;99.90;;;;;;10308594;28;20616;-80
2022/12/27 01:29:31;;;;;;;7.20;1.70;;;4.70;99.90;;;;;;10327778;28;20243;-79
2022/12/27 01:34:34;;;;;;;11.30;2.07;;;4.50;99.90;;;;;;10309235;28;20256;-80
2022/12/27 01:39:37;;;;;;;8.50;1.47;;;4.30;99.90;;;;;;10302054;28;20233;-80
2022/12/27 01:44:42;;;;;;;9.83;2.10;;;4.30;99.90;;;;;;10308594;28;20291;-80
2022/12/27 01:49:52;;;;;;;9.37;3.10;;;4.20;99.90;;;;;;10327550;28;20655;-80
2022/12/27 01:54:58;;;;;;;18.90;9.17;;;4.10;99.90;;;;;;10309064;28;20697;-80
2022/12/27 02:00:01;;;;;;;13.97;2.00;;;4.00;99.90;;;;;;10322421;28;20233;-80
2022/12/27 02:05:08;;;;;;;8.20;1.73;;;4.10;99.90;;;;;;10286800;28;20803;-79
2022/12/27 02:10:11;;;;;;;12.17;3.20;;;4.20;99.90;;;;;;10287237;28;20654;-80
2022/12/27 02:15:13;;;;;;;8.80;1.70;;;4.30;99.90;;;;;;10307658;28;20782;-80
2022/12/27 02:20:24;;;;;;;7.07;3.27;;;4.40;99.90;;;;;;10326132;28;20655;-79
2022/12/27 02:25:51;;;;;;;13.37;3.83;;;4.40;99.90;;;;;;10290522;28;20213;-80
2022/12/27 02:31:03;;;;;;;18.17;8.00;;;4.40;99.90;;;;;;10297803;28;20753;-79
2022/12/27 02:36:11;;;;;;;6.93;1.87;;;4.40;99.90;;;;;;10318286;28;20248;-79
2022/12/27 02:57:35;;;;;;;10.70;1.67;;;4.60;99.90;;;;;;10329535;28;20723;-79
2022/12/27 03:08:17;;;;;;;20.40;8.77;;;5.50;99.90;;;;;;10330128;28;20671;-80
2022/12/27 03:18:56;;;;;;;44.80;22.73;;;7.30;99.90;;;;;;10329822;28;20321;-80
2022/12/27 03:34:58;;;;;;;34.57;20.13;;;7.30;99.90;;;;;;10330421;28;20268;-80
2022/12/27 03:40:27;;;;;;;40.87;23.47;;;8.90;99.90;;;;;;10330522;28;20643;-80
2022/12/27 03:51:05;;;;;;;42.13;22.73;;;7.00;99.90;;;;;;10312081;28;20263;-80
2022/12/27 03:56:09;;;;;;;54.03;30.63;;;7.00;99.90;;;;;;10328271;28;20318;-80
2022/12/27 04:01:12;;;;;;;17.20;7.00;;;7.90;99.90;;;;;;10329881;28;20287;-80
2022/12/27 04:06:15;;;;;;;26.73;14.13;;;7.40;99.90;;;;;;10310789;28;20691;-80
2022/12/27 04:38:03;;;;;;;18.17;9.73;;;7.40;99.90;;;;;;10326164;28;20277;-80
2022/12/27 05:04:36;;;;;;;31.77;14.80;;;8.70;99.90;;;;;;10324893;28;20760;-80
2022/12/27 05:15:00;;;;;;;35.27;18.40;;;9.60;99.90;;;;;;10277187;28;1377031;-80
2022/12/27 05:20:02;;;;;;;7.37;1.93;;;9.00;99.90;;;;;;10309337;28;20249;-80
2022/12/27 05:30:26;;;;;;;35.50;18.43;;;7.70;99.90;;;;;;10324843;28;20238;-80
2022/12/27 05:35:29;;;;;;;28.37;14.13;;;9.10;99.90;;;;;;10326122;28;20320;-80
2022/12/27 05:40:32;;;;;;;31.07;15.03;;;8.30;99.90;;;;;;10308153;28;20646;-80
2022/12/27 05:45:35;;;;;;;9.87;2.63;;;9.70;99.90;;;;;;10325870;28;20245;-80
2022/12/27 05:50:38;;;;;;;16.50;5.53;;;8.20;99.90;;;;;;10325386;28;20237;-80
2022/12/27 05:55:57;;;;;;;18.10;9.80;;;8.20;99.90;;;;;;10291982;28;20311;-80
2022/12/27 06:01:00;;;;;;;23.57;11.10;;;7.90;99.90;;;;;;10325999;28;20229;-80
2022/12/27 06:06:04;;;;;;;27.37;15.67;;;8.70;99.90;;;;;;10307842;28;20300;-80
2022/12/27 06:11:11;;;;;;;17.80;7.67;;;8.70;99.90;;;;;;10325164;28;20244;-80
2022/12/27 06:16:15;;;;;;;11.07;5.30;;;7.40;99.90;;;;;;10292117;28;20274;-80
2022/12/27 06:21:20;;;;;;;16.80;9.40;;;8.60;99.90;;;;;;10315602;28;20233;-80
2022/12/27 06:26:25;;;;;;;27.70;12.87;;;9.20;99.90;;;;;;10332900;28;20248;-80
2022/12/27 06:31:27;;;;;;;30.20;16.80;;;8.40;99.90;;;;;;10332743;28;20609;-80
2022/12/27 06:36:31;;;;;;;27.00;13.67;;;8.20;99.90;;;;;;10332314;28;20286;-80
2022/12/27 06:41:33;;;;;;;7.80;4.57;;;10.10;99.90;;;;;;10333160;28;20303;-80
2022/12/27 06:46:37;;;;;;;15.03;7.97;;;8.40;97.90;;;;;;10313998;28;20600;-80
2022/12/27 06:51:39;;;;;;;11.20;5.23;;;9.30;99.90;;;;;;10332210;28;20612;-79
2022/12/27 06:56:42;;;;;;;12.37;5.00;;;8.90;99.90;;;;;;10331757;28;20308;-80
2022/12/27 07:01:44;;;;;;;12.23;3.70;;;9.30;99.10;;;;;;10314748;28;20236;-79
2022/12/27 07:06:49;;;;;;;22.37;11.33;;;8.90;99.90;;;;;;10332618;28;20240;-80
2022/12/27 07:11:52;;;;;;;15.57;7.57;;;9.00;99.90;;;;;;10312556;28;20244;-79
2022/12/27 07:16:55;;;;;;;24.83;11.83;;;9.40;99.90;;;;;;10339099;28;20725;-79
2022/12/27 07:21:58;;;;;;;21.03;10.60;;;9.60;99.90;;;;;;10353605;28;20243;-79
2022/12/27 07:27:01;;;;;;;16.00;9.80;;;10.30;99.90;;;;;;10371322;28;20627;-80
2022/12/27 07:32:04;;;;;;;17.37;10.70;;;11.10;99.90;;;;;;10352757;28;20612;-79
2022/12/27 07:37:07;;;;;;;8.47;4.93;;;10.60;99.90;;;;;;10372076;28;20259;-79
2022/12/27 07:42:09;;;;;;;11.40;3.13;;;9.80;99.90;;;;;;10368720;28;20246;-79
2022/12/27 07:47:12;;;;;;;9.97;6.30;;;8.40;97.80;;;;;;10353923;28;20305;-80
2022/12/27 07:52:15;;;;;;;12.63;5.90;;;8.60;99.90;;;;;;10371907;28;20300;-80
2022/12/27 07:57:17;;;;;;;12.57;7.57;;;8.90;99.90;;;;;;10370292;28;20282;-80
2022/12/27 08:02:20;;;;;;;12.03;7.27;;;9.10;99.90;;;;;;10367935;28;20231;-79
2022/12/27 08:07:24;;;;;;;8.23;3.50;;;9.40;99.90;;;;;;10370203;28;20258;-79
2022/12/27 08:12:27;;;;;;;7.20;2.50;;;8.90;99.90;;;;;;10370484;28;20290;-79
2022/12/27 08:17:29;;;;;;;15.30;9.00;;;8.50;99.90;;;;;;10340373;28;20307;-79
2022/12/27 08:22:32;;;;;;;14.33;8.23;;;9.30;99.90;;;;;;10329816;28;20229;-79
2022/12/27 08:27:35;;;;;;;8.23;5.87;;;9.20;99.90;;;;;;10327074;28;20266;-80
2022/12/27 08:32:37;;;;;;;3.33;1.97;;;9.40;99.90;;;;;;10329229;28;20232;-79
2022/12/27 08:37:39;;;;;;;14.83;8.07;;;9.60;95.90;;;;;;10327648;28;20670;-79
2022/12/27 08:42:42;;;;;;;13.57;7.47;;;9.30;99.90;;;;;;10328656;28;20236;-79
2022/12/27 08:47:45;;;;;;;11.77;3.90;;;10.00;99.90;;;;;;10324908;28;20308;-78
2022/12/27 08:52:47;;;;;;;15.30;8.03;;;8.80;98.30;;;;;;10327206;28;20237;-79
2022/12/27 08:57:50;;;;;;;12.93;5.70;;;8.90;99.90;;;;;;10327674;28;20255;-79
2022/12/27 09:02:53;;;;;;;8.60;4.03;;;9.90;99.90;;;;;;10327052;28;20228;-79
2022/12/27 09:07:57;;;;;;;10.70;5.87;;;9.60;99.90;;;;;;10326706;28;20295;-79
2022/12/27 09:12:59;;;;;;;9.77;4.17;;;8.50;99.90;;;;;;10326396;28;20316;-79
2022/12/27 09:18:02;;;;;;;5.30;2.73;;;8.80;99.90;;;;;;10360402;28;20272;-79
2022/12/27 09:23:04;;;;;;;13.97;8.13;;;8.80;98.90;;;;;;10349260;28;20258;-79
2022/12/27 09:28:09;;;;;;;13.10;5.90;;;9.40;99.90;;;;;;10348879;28;20246;-79
2022/12/27 09:33:11;;;;;;;12.97;7.20;;;10.30;99.90;;;;;;10332710;28;20238;-79
2022/12/27 09:38:14;;;;;;;16.33;6.57;;;10.20;99.90;;;;;;10366001;28;20261;-79
2022/12/27 09:43:19;;;;;;;6.37;4.13;;;10.60;99.90;;;;;;10365132;28;20204;-79
2022/12/27 09:48:38;;;;;;;15.23;7.83;;;10.20;97.40;;;;;;10365981;28;20238;-79
2022/12/27 09:53:48;;;;;;;9.03;5.57;;;10.00;99.90;;;;;;10352769;28;20227;-79
2022/12/27 09:58:54;;;;;;;7.07;2.30;;;10.20;97.60;;;;;;10356039;28;20771;-79
2022/12/27 10:03:57;;;;;;;8.77;5.87;;;10.00;95.30;;;;;;10373990;28;20726;-79
2022/12/27 10:09:03;;;;;;;11.27;6.40;;;9.80;99.90;;;;;;10357086;28;20266;-79
2022/12/27 10:14:19;;;;;;;10.07;6.57;;;10.50;99.90;;;;;;10371812;28;20305;-79
2022/12/27 10:19:35;;;;;;;9.23;3.20;;;11.30;99.90;;;;;;10354045;28;20263;-80
2022/12/27 10:24:47;;;;;;;9.40;5.50;;;10.80;99.90;;;;;;10331849;28;20302;-81
2022/12/27 10:29:55;;;;;;;10.10;6.80;;;12.40;99.90;;;;;;10332741;28;20836;-80
2022/12/27 10:35:01;;;;;;;9.00;5.50;;;13.00;99.90;;;;;;10326281;28;20256;-80
2022/12/27 10:40:14;;;;;;;8.70;3.93;;;12.60;99.10;;;;;;10331904;28;20232;-80
2022/12/27 10:45:38;;;;;;;9.80;5.10;;;12.80;96.30;;;;;;10331484;28;20243;-80
2022/12/27 10:51:06;;;;;;;7.03;3.60;;;12.70;94.20;;;;;;10332699;28;20239;-80
2022/12/27 10:56:23;;;;;;;11.50;7.00;;;11.70;99.30;;;;;;10332700;28;20806;-80
2022/12/27 11:01:29;;;;;;;7.43;4.43;;;11.70;99.90;;;;;;10329026;28;20275;-80
2022/12/27 11:06:31;;;;;;;8.77;3.47;;;11.80;99.20;;;;;;10331453;28;20283;-80
2022/12/27 11:11:34;;;;;;;7.80;4.93;;;12.00;93.30;;;;;;10300103;28;20293;-80
2022/12/27 11:16:40;;;;;;;8.80;5.50;;;11.80;95.80;;;;;;10310973;28;20264;-80
2022/12/27 11:21:42;;;;;;;5.77;4.13;;;12.00;98.40;;;;;;10313946;28;20240;-80
2022/12/27 11:26:57;;;;;;;9.17;5.87;;;11.30;99.10;;;;;;10329777;28;20241;-79
2022/12/27 11:32:06;;;;;;;8.93;5.27;;;12.60;99.90;;;;;;10324339;28;20259;-79
2022/12/27 11:37:16;;;;;;;5.37;3.13;;;11.80;99.90;;;;;;10329602;28;20331;-79
2022/12/27 11:42:48;;;;;;;7.83;2.97;;;11.60;76.40;;;;;;10279839;28;20652;-78
2022/12/27 11:47:57;;;;;;;4.80;2.63;;;8.40;95.00;;;;;;10311427;28;20383;-80
2022/12/27 11:53:08;;;;;;;6.73;3.00;;;9.90;99.90;;;;;;10329027;28;20242;-80
2022/12/27 11:58:36;;;;;;;6.03;2.53;;;9.20;99.90;;;;;;10312442;28;20311;-80
2022/12/27 12:03:38;;;;;;;6.87;2.70;;;8.20;99.90;;;;;;10326917;28;20733;-79
2022/12/27 12:08:44;;;;;;;4.73;2.57;;;6.70;99.90;;;;;;10328627;28;20263;-79
2022/12/27 12:13:49;;;;;;;9.40;2.83;;;6.30;99.90;;;;;;10328756;28;20291;-78
2022/12/27 12:19:23;;;;;;;6.30;2.80;;;5.80;99.90;;;;;;10310037;28;20306;-79
2022/12/27 12:24:47;;;;;;;9.10;3.43;;;5.60;99.90;;;;;;10291821;28;20269;-78
2022/12/27 12:30:11;;;;;;;5.83;1.90;;;5.60;99.90;;;;;;10313056;28;20229;-79
2022/12/27 12:35:29;;;;;;;4.87;2.60;;;7.90;99.90;;;;;;10310945;28;20233;-79
2022/12/27 12:41:04;;;;;;;7.83;3.00;;;8.60;99.90;;;;;;10327471;28;20239;-79
2022/12/27 12:46:42;;;;;;;4.57;2.43;;;10.20;99.90;;;;;;10325662;28;20625;-80
2022/12/27 12:51:57;;;;;;;6.07;2.47;;;10.00;99.90;;;;;;10298324;28;20240;-82
2022/12/27 12:57:15;;;;;;;5.53;3.23;;;10.80;99.90;;;;;;10326427;28;20317;-80
2022/12/27 13:03:06;;;;;;;9.80;2.87;;;11.60;95.80;;;;;;10325230;28;20252;-79
2022/12/27 13:08:45;;;;;;;7.50;3.30;;;7.70;98.70;;;;;;10194943;29;20301;-78
2022/12/27 13:14:25;;;;;;;9.63;4.27;;;6.10;99.90;;;;;;10169517;29;20309;-78
2022/12/27 13:19:57;;;;;;;12.57;4.33;;;5.60;99.90;;;;;;10194512;29;20302;-78
2022/12/27 13:25:03;;;;;;;7.97;3.63;;;5.30;99.90;;;;;;10193074;29;20250;-78
2022/12/27 13:30:19;;;;;;;4.77;2.80;;;7.50;99.90;;;;;;10186272;29;20297;-78
2022/12/27 13:35:38;;;;;;;6.13;2.83;;;9.10;99.90;;;;;;10201185;29;20271;-78
2022/12/27 13:40:49;;;;;;;3.70;2.17;;;11.30;98.20;;;;;;10240182;28;20770;-78
2022/12/27 13:46:37;;;;;;;5.20;3.27;;;10.70;99.90;;;;;;10285427;28;20246;-79
2022/12/27 13:51:49;;;;;;;8.40;2.93;;;10.30;93.30;;;;;;10268185;28;20272;-79
2022/12/27 13:57:22;;;;;;;3.73;2.63;;;10.80;99.70;;;;;;10285316;28;21010;-79
2022/12/27 14:02:36;;;;;;;7.80;2.63;;;11.60;99.00;;;;;;10285044;28;20244;-79
2022/12/27 14:08:00;;;;;;;5.53;3.30;;;11.70;98.90;;;;;;10285846;28;20249;-79
2022/12/27 14:13:07;;;;;;;5.07;3.03;;;11.70;97.30;;;;;;10268112;28;20819;-79
2022/12/27 14:18:21;;;;;;;6.73;3.10;;;11.10;99.90;;;;;;10279087;28;20277;-78
2022/12/27 14:23:55;;;;;;;4.70;3.60;;;12.00;98.30;;;;;;10284448;28;20283;-79
2022/12/27 14:29:35;;;;;;;6.03;3.67;;;10.60;95.20;;;;;;10285772;28;20243;-79
2022/12/27 14:34:49;;;;;;;5.80;3.37;;;9.40;99.90;;;;;;10285180;28;20302;-79
2022/12/27 14:40:30;;;;;;;4.37;3.57;;;10.10;99.70;;;;;;10289252;28;20700;-78
2022/12/27 14:45:54;;;;;;;5.53;3.03;;;10.50;97.20;;;;;;10292945;28;20235;-78
2022/12/27 14:51:36;;;;;;;5.60;3.30;;;9.60;92.70;;;;;;10293120;28;20291;-79
2022/12/27 14:57:15;;;;;;;9.77;3.53;;;9.60;99.90;;;;;;10292074;28;20265;-79
2022/12/27 15:02:40;;;;;;;7.70;3.70;;;10.90;97.80;;;;;;10290824;28;20228;-79
2022/12/27 15:07:56;;;;;;;6.17;4.10;;;9.60;95.50;;;;;;10292094;28;20267;-79
2022/12/27 15:13:13;;;;;;;8.70;4.83;;;8.70;99.90;;;;;;10291471;28;20252;-79
2022/12/27 15:18:15;;;;;;;10.50;5.47;;;8.80;96.60;;;;;;10291278;28;20268;-78
2022/12/27 15:23:24;;;;;;;8.57;4.87;;;8.70;97.50;;;;;;10291189;28;20307;-79
2022/12/27 15:28:41;;;;;;;7.90;4.33;;;8.30;99.90;;;;;;10290993;28;20300;-79
2022/12/27 15:34:02;;;;;;;12.93;5.80;;;8.60;99.90;;;;;;10290809;28;20236;-79
2022/12/27 15:39:25;;;;;;;8.10;4.47;;;8.80;99.90;;;;;;10273450;28;20643;-78
2022/12/27 15:44:48;;;;;;;4.67;3.20;;;8.40;97.50;;;;;;10290237;28;20310;-79
2022/12/27 15:50:18;;;;;;;9.17;4.57;;;8.10;99.90;;;;;;10367958;23;20263;-78
2022/12/27 15:55:30;;;;;;;6.17;3.90;;;8.40;98.30;;;;;;10369998;28;20628;-79
2022/12/27 16:00:33;;;;;;;6.67;3.63;;;9.30;98.10;;;;;;10369332;28;20254;-79
2022/12/27 16:05:43;;;;;;;8.43;4.73;;;9.50;98.90;;;;;;10370192;28;20251;-78
2022/12/27 16:10:48;;;;;;;7.80;4.40;;;10.00;99.90;;;;;;10368860;28;20239;-78
2022/12/27 16:15:53;;;;;;;13.10;6.60;;;9.20;99.90;;;;;;10369980;28;20291;-79
2022/12/27 16:21:02;;;;;;;12.50;5.17;;;9.00;99.60;;;;;;10369363;28;20231;-78
2022/12/27 16:26:14;;;;;;;6.93;4.87;;;9.10;96.90;;;;;;10368219;28;20228;-78
2022/12/27 16:31:22;;;;;;;5.63;3.70;;;8.80;99.90;;;;;;10369070;28;20263;-78
2022/12/27 16:36:31;;;;;;;10.37;5.23;;;9.30;99.90;;;;;;10368815;28;20634;-79
2022/12/27 16:41:55;;;;;;;9.67;4.47;;;8.40;95.30;;;;;;10367229;28;20232;-79
2022/12/27 16:47:10;;;;;;;8.67;4.13;;;8.60;98.40;;;;;;10367455;28;20296;-79
2022/12/27 16:52:13;;;;;;;7.20;4.07;;;9.10;99.90;;;;;;10331064;28;20287;-79
2022/12/27 16:57:25;;;;;;;7.20;4.10;;;8.40;99.90;;;;;;10326174;28;20693;-79
2022/12/27 17:02:37;;;;;;;7.83;3.90;;;8.60;99.90;;;;;;10327370;28;20302;-79
2022/12/27 17:07:42;;;;;;;10.27;4.90;;;7.50;99.90;;;;;;10327702;28;20285;-79
2022/12/27 17:12:51;;;;;;;7.73;3.40;;;7.70;99.90;;;;;;10327397;28;20253;-79
2022/12/27 17:18:03;;;;;;;9.70;4.43;;;8.40;99.90;;;;;;10327157;28;20322;-79
2022/12/27 17:23:06;;;;;;;6.37;3.50;;;8.10;98.30;;;;;;10326671;28;20226;-79
2022/12/27 17:28:30;;;;;;;9.77;4.03;;;6.90;99.90;;;;;;10326059;28;20320;-79
2022/12/27 17:33:55;;;;;;;9.47;4.23;;;7.60;99.90;;;;;;10325077;28;20294;-79
2022/12/27 17:39:23;;;;;;;7.00;2.40;;;7.80;98.00;;;;;;10329092;28;20256;-78
2022/12/27 17:44:38;;;;;;;12.40;3.63;;;10.00;99.10;;;;;;10346232;28;20229;-79
2022/12/27 17:49:41;;;;;;;7.33;2.93;;;8.80;96.30;;;;;;10339890;28;20282;-78
2022/12/27 18:00:19;;;;;;;10.43;3.80;;;6.60;99.60;;;;;;10342973;28;20678;-78
2022/12/27 18:05:27;;;;;;;6.97;4.03;;;5.60;99.90;;;;;;10360662;28;20228;-78
2022/12/27 18:10:33;;;;;;;8.27;3.77;;;5.60;99.90;;;;;;10325593;28;20237;-78
2022/12/27 18:15:41;;;;;;;8.93;4.77;;;5.80;99.90;;;;;;10330198;28;20260;-78
2022/12/27 18:20:44;;;;;;;7.63;4.57;;;5.30;99.90;;;;;;10339641;28;20259;-78
2022/12/27 18:25:46;;;;;;;11.17;4.07;;;5.00;99.90;;;;;;10359098;28;20778;-78
2022/12/27 18:30:58;;;;;;;13.20;5.10;;;4.70;99.90;;;;;;10332986;28;20268;-78
2022/12/27 18:36:04;;;;;;;14.93;5.53;;;4.50;99.90;;;;;;10334921;28;20623;-78
2022/12/27 18:41:22;;;;;;;11.87;4.80;;;4.60;99.90;;;;;;10332374;28;20422;-78
2022/12/27 18:46:33;;;;;;;18.60;7.30;;;5.20;99.90;;;;;;10337057;28;20228;-79
2022/12/27 18:51:38;;;;;;;13.30;8.03;;;4.90;99.90;;;;;;10370773;28;20282;-78
2022/12/27 18:56:41;;;;;;;17.27;8.83;;;4.40;99.90;;;;;;10350674;28;20272;-78
2022/12/27 19:01:45;;;;;;;13.03;8.30;;;3.80;99.90;;;;;;10332782;28;20228;-78
2022/12/27 19:07:14;;;;;;;15.53;8.43;;;3.60;99.90;;;;;;10341024;28;20324;-78
2022/12/27 19:12:22;;;;;;;13.60;7.10;;;3.30;99.90;;;;;;10000988;28;9999947;-78
2022/12/27 19:17:31;;;;;;;14.07;6.83;;;3.20;99.90;;;;;;10343267;28;20256;-78
2022/12/27 19:22:39;;;;;;;13.33;7.20;;;3.20;99.90;;;;;;10346161;28;20229;-78
2022/12/27 19:27:59;;;;;;;12.73;7.10;;;4.30;99.90;;;;;;10354806;28;20228;-78
2022/12/27 19:33:22;;;;;;;15.43;7.57;;;3.80;99.90;;;;;;10338532;28;20295;-78
2022/12/27 19:38:31;;;;;;;12.93;7.10;;;3.50;99.90;;;;;;10324982;28;20318;-78
2022/12/27 19:43:38;;;;;;;14.80;7.93;;;3.30;99.90;;;;;;10333019;28;20232;-78
2022/12/27 19:48:42;;;;;;;16.40;7.70;;;3.40;99.90;;;;;;10326455;28;20330;-78
2022/12/27 19:53:51;;;;;;;15.13;7.40;;;3.30;99.90;;;;;;10332085;28;20634;-77
2022/12/27 19:58:59;;;;;;;13.07;6.77;;;3.00;99.90;;;;;;10366751;28;20287;-79
2022/12/27 20:04:01;;;;;;;16.27;9.30;;;3.10;99.90;;;;;;10345561;28;20236;-78
2022/12/27 20:09:07;;;;;;;14.27;7.63;;;2.80;99.90;;;;;;10345149;28;20232;-78
2022/12/27 20:14:10;;;;;;;11.93;7.03;;;2.60;99.90;;;;;;10343200;28;20237;-78
2022/12/27 20:19:15;;;;;;;14.23;6.87;;;3.30;99.90;;;;;;10333368;28;20583;-78
2022/12/27 20:24:17;;;;;;;11.67;5.97;;;3.10;99.90;;;;;;10341403;28;20251;-78
2022/12/27 20:29:20;;;;;;;14.10;7.23;;;3.60;99.90;;;;;;10328690;28;20637;-78
2022/12/27 20:34:23;;;;;;;15.40;8.23;;;3.30;99.90;;;;;;10366697;28;20212;-78
2022/12/27 20:39:25;;;;;;;7.80;5.10;;;2.90;99.90;;;;;;10335463;28;20263;-78
2022/12/27 20:44:28;;;;;;;12.97;7.27;;;2.70;99.90;;;;;;10327692;28;20237;-79
2022/12/27 20:49:31;;;;;;;12.93;7.77;;;3.10;99.90;;;;;;10348395;28;20296;-78
2022/12/27 20:54:33;;;;;;;21.83;9.70;;;2.90;99.90;;;;;;10340521;28;20987;-78
2022/12/27 20:59:36;;;;;;;19.03;9.57;;;2.90;99.90;;;;;;10364652;28;20808;-78
2022/12/27 21:04:38;;;;;;;26.10;15.83;;;2.80;99.90;;;;;;10347912;28;20232;-79
2022/12/27 21:09:41;;;;;;;19.33;10.90;;;2.30;99.90;;;;;;10350875;28;20258;-78
2022/12/27 21:14:44;;;;;;;22.20;12.07;;;2.30;99.90;;;;;;10336233;28;20302;-78
2022/12/27 21:19:46;;;;;;;18.60;11.47;;;1.90;99.90;;;;;;10333516;28;20256;-78
2022/12/27 21:24:49;;;;;;;22.77;11.80;;;1.80;99.90;;;;;;10331187;28;20251;-78
2022/12/27 21:29:51;;;;;;;24.37;12.27;;;1.70;99.90;;;;;;10340171;28;20244;-77
2022/12/27 21:34:54;;;;;;;27.37;13.47;;;1.60;99.90;;;;;;10326637;28;20279;-77
2022/12/27 21:39:57;;;;;;;14.97;8.77;;;1.50;99.90;;;;;;10356409;28;20247;-78
2022/12/27 21:44:59;;;;;;;18.27;10.80;;;1.80;99.90;;;;;;10364548;28;20219;-78
2022/12/27 21:50:02;;;;;;;13.60;8.30;;;1.70;99.90;;;;;;10356575;28;20672;-78
2022/12/27 21:55:04;;;;;;;13.50;8.93;;;2.40;99.90;;;;;;10347926;28;20302;-78
2022/12/27 22:00:08;;;;;;;14.60;8.67;;;2.30;99.90;;;;;;10343100;28;20724;-79
2022/12/27 22:05:10;;;;;;;15.43;7.90;;;2.20;99.90;;;;;;10345900;28;20237;-79
2022/12/27 22:10:13;;;;;;;11.90;8.60;;;2.20;99.90;;;;;;10359836;28;20236;-79
2022/12/27 22:15:15;;;;;;;16.07;7.53;;;3.10;99.90;;;;;;10349208;28;20664;-78
2022/12/27 22:20:18;;;;;;;15.77;8.80;;;2.60;99.90;;;;;;10331667;28;20442;-79
2022/12/27 22:25:20;;;;;;;10.57;6.90;;;2.30;99.90;;;;;;10350650;28;20294;-81
2022/12/27 22:30:23;;;;;;;17.37;8.13;;;2.30;99.90;;;;;;10361058;28;20260;-81
2022/12/27 22:35:25;;;;;;;15.80;8.53;;;2.00;99.90;;;;;;10361096;28;20267;-81
2022/12/27 22:40:28;;;;;;;22.17;9.97;;;1.70;99.90;;;;;;10347768;28;20328;-81
2022/12/27 22:45:47;;;;;;;26.57;12.37;;;1.50;99.90;;;;;;10343225;28;20239;-80
2022/12/27 22:50:55;;;;;;;19.53;11.47;;;1.20;99.90;;;;;;10343335;28;20711;-81
2022/12/27 22:55:57;;;;;;;32.23;16.37;;;0.90;99.90;;;;;;10351740;28;20240;-81
2022/12/27 23:01:00;;;;;;;27.37;15.80;;;0.60;99.90;;;;;;10348196;28;20258;-80
2022/12/27 23:06:03;;;;;;;24.70;15.00;;;0.40;99.90;;;;;;10337890;28;20237;-81
2022/12/27 23:11:22;;;;;;;37.13;17.33;;;0.20;99.90;;;;;;10320408;28;20292;-79
2022/12/27 23:16:25;;;;;;;25.60;15.93;;;0.10;99.90;;;;;;10330772;28;20302;-79
2022/12/27 23:21:27;;;;;;;35.00;17.53;;;0.10;99.90;;;;;;10333250;28;20260;-79
2022/12/27 23:26:30;;;;;;;34.47;18.27;;;0.00;99.90;;;;;;10331610;28;20259;-78
2022/12/27 23:31:33;;;;;;;39.53;20.47;;;-0.20;99.90;;;;;;10345619;28;20629;-79
2022/12/27 23:36:36;;;;;;;39.67;16.13;;;-0.30;99.90;;;;;;10332581;28;20291;-79
2022/12/27 23:41:38;;;;;;;25.23;13.93;;;-0.40;99.90;;;;;;10352935;28;20717;-79
2022/12/27 23:46:41;;;;;;;27.97;15.73;;;-0.50;99.90;;;;;;10344117;28;20334;-79
2022/12/27 23:51:43;;;;;;;26.43;15.73;;;-0.70;99.90;;;;;;10330995;28;20228;-79
2022/12/27 23:56:46;;;;;;;26.63;15.43;;;-0.70;99.90;;;;;;10334158;28;20244;-79
